Time;durP1;ratioP1;P1;durP2;ratioP2;P2;SDS_P1;SDS_P2;PMS_P1;PMS_P2;Temp;Humidity;BMP_temperature;BMP_pressure;BME280_temperature;BME280_humidity;BME280_pressure;Samples;Min_cycle;Max_cycle;Signal;HPM_P1;HPM_P2
2023/04/25 00:01:56;;;;;;;6.40;3.97;;;7.60;99.90;;;;;;5107440;28;20194;-78
2023/04/25 00:04:23;;;;;;;9.83;4.83;;;7.60;99.90;;;;;;5105154;28;20208;-79
2023/04/25 00:06:52;;;;;;;12.17;4.40;;;7.50;99.90;;;;;;5111066;28;20200;-79
2023/04/25 00:09:18;;;;;;;14.30;4.23;;;7.50;99.90;;;;;;5095350;28;20725;-79
2023/04/25 00:11:45;;;;;;;8.33;4.50;;;7.40;99.90;;;;;;5095935;28;20212;-80
2023/04/25 00:14:12;;;;;;;10.10;4.57;;;7.40;99.90;;;;;;5095810;28;20570;-78
2023/04/25 00:16:40;;;;;;;13.23;4.50;;;7.40;99.90;;;;;;5091458;28;20197;-78
2023/04/25 00:19:09;;;;;;;12.17;4.40;;;7.30;99.90;;;;;;5100311;28;20224;-79
2023/04/25 00:21:37;;;;;;;11.13;4.00;;;7.20;99.90;;;;;;5098551;28;20630;-78
2023/04/25 00:24:06;;;;;;;11.63;4.50;;;7.30;99.90;;;;;;5091480;28;20548;-78
2023/04/25 00:26:34;;;;;;;8.67;4.50;;;7.30;99.90;;;;;;5089637;28;20210;-77
2023/04/25 00:29:01;;;;;;;12.07;4.70;;;7.30;99.90;;;;;;5091204;28;20225;-78
2023/04/25 00:31:28;;;;;;;8.57;4.07;;;7.40;99.90;;;;;;5091769;28;20205;-78
2023/04/25 00:33:55;;;;;;;12.73;5.10;;;7.40;99.90;;;;;;5108883;28;20207;-78
2023/04/25 00:36:22;;;;;;;14.30;5.00;;;7.40;99.90;;;;;;5105180;28;20223;-79
2023/04/25 00:38:49;;;;;;;10.87;4.33;;;7.40;99.90;;;;;;5111164;28;20224;-79
2023/04/25 00:41:17;;;;;;;11.67;5.23;;;7.40;99.90;;;;;;5107184;28;20461;-78
2023/04/25 00:43:46;;;;;;;14.30;4.83;;;7.50;99.90;;;;;;5111761;28;20292;-79
2023/04/25 00:46:13;;;;;;;12.30;4.73;;;7.50;99.90;;;;;;5105872;28;20207;-78
2023/04/25 00:48:40;;;;;;;13.33;5.63;;;7.40;99.90;;;;;;5091860;28;20225;-78
2023/04/25 00:51:07;;;;;;;11.37;4.97;;;7.40;99.90;;;;;;5091343;28;20198;-78
2023/04/25 00:53:34;;;;;;;9.30;4.80;;;7.40;99.90;;;;;;5102879;28;20201;-77
2023/04/25 00:56:01;;;;;;;13.30;4.77;;;7.40;99.90;;;;;;5112030;28;20574;-78
2023/04/25 00:58:29;;;;;;;13.47;5.13;;;7.30;99.90;;;;;;5111565;28;20232;-78
2023/04/25 01:00:57;;;;;;;11.50;5.20;;;7.30;99.90;;;;;;5111776;28;20319;-78
2023/04/25 01:03:24;;;;;;;12.40;4.87;;;7.30;99.90;;;;;;5111924;28;20612;-78
2023/04/25 01:05:52;;;;;;;13.30;6.37;;;7.30;99.90;;;;;;5102973;28;20284;-79
2023/04/25 01:08:19;;;;;;;12.33;6.10;;;7.30;99.90;;;;;;5091456;28;20576;-77
2023/04/25 01:10:46;;;;;;;9.57;5.30;;;7.40;99.90;;;;;;5093549;28;20682;-78
2023/04/25 01:13:12;;;;;;;10.53;5.37;;;7.40;99.90;;;;;;5094270;28;20932;-78
2023/04/25 01:15:41;;;;;;;16.37;5.80;;;7.30;99.90;;;;;;5093530;28;20586;-78
2023/04/25 01:18:07;;;;;;;15.93;5.90;;;7.30;99.90;;;;;;5096230;28;20197;-79
2023/04/25 01:20:35;;;;;;;15.20;5.50;;;7.30;99.90;;;;;;5111676;28;20221;-79
2023/04/25 01:23:03;;;;;;;12.63;5.67;;;7.30;99.90;;;;;;5113646;28;20189;-79
2023/04/25 01:25:30;;;;;;;17.07;6.23;;;7.30;99.90;;;;;;5117203;28;20255;-79
2023/04/25 01:27:58;;;;;;;13.73;6.23;;;7.20;99.90;;;;;;5108144;28;20198;-78
2023/04/25 01:30:27;;;;;;;15.13;6.40;;;7.20;99.90;;;;;;5103907;28;20261;-79
2023/04/25 01:32:56;;;;;;;14.00;6.23;;;7.30;99.90;;;;;;5120223;28;20197;-78
2023/04/25 01:35:24;;;;;;;13.27;6.20;;;7.30;99.90;;;;;;5116834;28;20197;-79
2023/04/25 01:37:52;;;;;;;12.40;6.10;;;7.30;99.90;;;;;;5112839;28;20197;-78
2023/04/25 01:40:22;;;;;;;12.03;5.90;;;7.30;99.90;;;;;;5099621;28;20581;-77
2023/04/25 01:42:49;;;;;;;15.83;6.20;;;7.20;99.90;;;;;;5106651;28;20689;-78
2023/04/25 01:45:16;;;;;;;13.90;6.70;;;7.20;99.90;;;;;;5109825;28;20194;-78
2023/04/25 01:47:43;;;;;;;14.50;6.57;;;7.20;99.90;;;;;;5100066;28;20288;-78
2023/04/25 01:50:11;;;;;;;14.53;6.57;;;7.20;99.90;;;;;;5098573;28;20214;-78
2023/04/25 01:52:38;;;;;;;14.97;7.43;;;7.10;99.90;;;;;;5105938;28;20212;-79
2023/04/25 01:55:07;;;;;;;15.53;7.03;;;7.20;99.90;;;;;;5118767;28;20208;-79
2023/04/25 01:57:35;;;;;;;16.17;6.87;;;7.20;99.90;;;;;;5103480;28;20200;-79
2023/04/25 02:00:04;;;;;;;17.50;6.53;;;7.20;99.90;;;;;;5111673;28;20231;-78
2023/04/25 02:02:31;;;;;;;15.07;6.47;;;7.20;99.90;;;;;;5112902;28;20198;-78
2023/04/25 02:04:58;;;;;;;13.50;6.83;;;7.20;99.90;;;;;;5104653;28;20269;-79
2023/04/25 02:07:25;;;;;;;16.67;7.30;;;7.10;99.90;;;;;;5096795;28;20202;-78
2023/04/25 02:09:51;;;;;;;14.20;5.97;;;7.20;99.90;;;;;;5100438;28;20627;-79
2023/04/25 02:12:18;;;;;;;16.07;6.47;;;7.20;99.90;;;;;;5113707;28;20194;-79
2023/04/25 02:14:46;;;;;;;14.77;7.07;;;7.20;99.90;;;;;;5115594;28;20552;-77
2023/04/25 02:17:13;;;;;;;19.80;7.47;;;7.00;99.90;;;;;;5103543;28;20209;-79
2023/04/25 02:19:40;;;;;;;17.37;6.20;;;7.10;99.90;;;;;;5099455;28;20221;-79
2023/04/25 02:22:07;;;;;;;18.80;8.33;;;7.20;99.90;;;;;;5100223;28;20189;-78
2023/04/25 02:24:34;;;;;;;14.17;6.33;;;7.20;99.90;;;;;;5106985;28;20646;-78
2023/04/25 02:27:01;;;;;;;12.63;6.47;;;7.20;99.90;;;;;;5108637;28;20202;-79
2023/04/25 02:29:28;;;;;;;15.93;7.07;;;7.10;99.90;;;;;;5098984;28;20252;-78
2023/04/25 02:31:56;;;;;;;16.70;7.37;;;7.20;99.90;;;;;;5099197;28;20202;-79
2023/04/25 02:34:23;;;;;;;13.17;6.40;;;7.10;99.90;;;;;;5116475;28;20220;-79
2023/04/25 02:36:50;;;;;;;15.67;6.47;;;7.10;99.90;;;;;;5102675;28;20196;-78
2023/04/25 02:39:17;;;;;;;18.90;7.10;;;7.00;99.90;;;;;;5108700;28;20221;-80
2023/04/25 02:41:44;;;;;;;14.83;6.80;;;7.00;99.90;;;;;;5104923;28;20213;-76
2023/04/25 02:44:11;;;;;;;15.70;6.77;;;7.00;99.90;;;;;;5119494;28;20569;-79
2023/04/25 02:46:40;;;;;;;14.73;6.40;;;6.90;99.90;;;;;;5104592;28;20208;-78
2023/04/25 02:49:08;;;;;;;13.07;6.37;;;6.90;99.90;;;;;;5117433;28;20270;-78
2023/04/25 02:51:35;;;;;;;14.00;6.47;;;6.90;99.90;;;;;;5102618;28;20190;-79
2023/04/25 02:54:02;;;;;;;14.27;6.43;;;6.80;99.90;;;;;;5118925;28;20201;-77
2023/04/25 02:56:28;;;;;;;12.43;5.43;;;6.80;99.90;;;;;;5101271;28;20202;-79
2023/04/25 02:58:55;;;;;;;19.10;5.70;;;6.80;99.90;;;;;;5096398;28;20249;-78
2023/04/25 03:01:22;;;;;;;15.10;5.67;;;6.70;99.90;;;;;;5096475;28;20213;-78
2023/04/25 03:03:49;;;;;;;12.67;5.10;;;6.60;99.90;;;;;;5097523;28;20663;-78
2023/04/25 03:06:17;;;;;;;12.23;4.90;;;6.50;99.90;;;;;;5112079;28;20257;-78
2023/04/25 03:08:44;;;;;;;12.47;5.00;;;6.60;99.90;;;;;;5117360;28;20223;-79
2023/04/25 03:11:11;;;;;;;14.53;4.50;;;6.60;99.90;;;;;;5117673;28;20215;-78
2023/04/25 03:13:38;;;;;;;18.10;4.80;;;6.60;99.90;;;;;;5118390;28;20599;-77
2023/04/25 03:16:05;;;;;;;9.77;4.40;;;6.60;99.90;;;;;;5117230;28;20203;-76
2023/04/25 03:18:32;;;;;;;12.63;3.93;;;6.60;99.90;;;;;;5119007;28;20212;-79
2023/04/25 03:20:59;;;;;;;15.93;4.20;;;6.60;99.90;;;;;;5107134;28;20305;-77
2023/04/25 03:23:27;;;;;;;13.40;4.37;;;6.60;99.90;;;;;;5098963;28;20719;-78
2023/04/25 03:25:54;;;;;;;12.60;4.20;;;6.60;99.90;;;;;;5098995;28;20212;-78
2023/04/25 03:28:21;;;;;;;14.60;3.80;;;6.50;99.90;;;;;;5098438;28;20209;-79
2023/04/25 03:30:48;;;;;;;10.57;4.40;;;6.40;99.90;;;;;;5099627;28;20292;-78
2023/04/25 03:33:14;;;;;;;12.83;4.00;;;6.40;99.90;;;;;;5100742;28;20223;-80
2023/04/25 03:35:42;;;;;;;8.57;4.00;;;6.40;99.90;;;;;;5100222;28;20233;-77
2023/04/25 03:38:09;;;;;;;13.47;3.50;;;6.40;99.90;;;;;;5100206;28;20208;-80
2023/04/25 03:40:37;;;;;;;18.20;3.50;;;6.40;99.90;;;;;;5099009;28;20213;-80
2023/04/25 03:43:04;;;;;;;14.77;4.70;;;6.40;99.90;;;;;;5100055;28;20197;-80
2023/04/25 03:45:30;;;;;;;15.20;3.77;;;6.40;99.90;;;;;;5099805;28;20209;-80
2023/04/25 03:47:57;;;;;;;15.90;5.20;;;6.50;99.90;;;;;;5099501;28;20206;-81
2023/04/25 03:50:24;;;;;;;8.80;3.53;;;6.50;99.90;;;;;;5100178;28;20224;-79
2023/04/25 03:52:51;;;;;;;14.73;4.33;;;6.60;99.90;;;;;;5100259;28;20288;-80
2023/04/25 03:55:18;;;;;;;14.43;6.00;;;6.50;99.90;;;;;;5100105;28;20213;-80
2023/04/25 03:57:46;;;;;;;14.43;4.73;;;6.50;99.90;;;;;;5100059;28;20209;-80
2023/04/25 04:00:14;;;;;;;10.50;4.03;;;6.50;99.90;;;;;;5099257;28;20785;-80
2023/04/25 04:02:41;;;;;;;11.23;4.13;;;6.50;99.90;;;;;;5100509;28;20269;-79
2023/04/25 04:05:09;;;;;;;11.57;4.50;;;6.50;99.90;;;;;;5098921;28;20202;-79
2023/04/25 04:07:39;;;;;;;11.00;4.03;;;6.50;99.90;;;;;;5098715;28;20230;-78
2023/04/25 04:10:07;;;;;;;8.63;4.37;;;6.50;99.90;;;;;;5098333;28;20217;-79
2023/04/25 04:12:34;;;;;;;12.07;4.87;;;6.60;99.90;;;;;;5096587;28;20208;-80
2023/04/25 04:15:03;;;;;;;13.30;3.97;;;6.40;99.90;;;;;;5098364;28;20373;-80
2023/04/25 04:17:30;;;;;;;9.43;4.43;;;6.50;99.90;;;;;;5097287;28;20293;-79
2023/04/25 04:19:57;;;;;;;15.97;4.57;;;6.40;99.90;;;;;;5101938;28;20304;-79
2023/04/25 04:22:24;;;;;;;11.03;4.17;;;6.40;99.90;;;;;;5102994;28;20686;-79
2023/04/25 04:24:51;;;;;;;9.93;3.90;;;6.40;99.90;;;;;;5114625;28;20203;-79
2023/04/25 04:27:19;;;;;;;16.30;4.27;;;6.50;99.90;;;;;;5100012;28;20211;-78
2023/04/25 04:29:47;;;;;;;16.83;4.57;;;6.40;99.90;;;;;;5097285;28;20226;-79
2023/04/25 04:32:16;;;;;;;11.10;4.13;;;6.40;99.90;;;;;;5113425;28;20200;-77
2023/04/25 04:34:43;;;;;;;13.90;4.63;;;6.50;99.90;;;;;;5096887;28;20212;-80
2023/04/25 04:37:09;;;;;;;15.47;3.80;;;6.50;99.90;;;;;;5098564;28;20210;-80
2023/04/25 04:39:37;;;;;;;14.87;4.33;;;6.50;99.90;;;;;;5118580;28;20597;-79
2023/04/25 04:42:04;;;;;;;13.17;4.47;;;6.50;99.90;;;;;;5111318;28;20229;-80
2023/04/25 04:44:34;;;;;;;14.17;4.33;;;6.60;99.90;;;;;;5099364;28;20425;-80
2023/04/25 04:47:01;;;;;;;13.07;4.67;;;6.60;99.90;;;;;;5099321;28;20206;-80
2023/04/25 04:49:29;;;;;;;23.27;6.00;;;6.50;99.90;;;;;;5098423;28;20418;-78
2023/04/25 04:51:56;;;;;;;15.73;4.93;;;6.50;99.90;;;;;;5103217;28;20205;-78
2023/04/25 04:54:23;;;;;;;13.87;4.63;;;6.60;99.90;;;;;;5118855;28;20209;-79
2023/04/25 04:56:52;;;;;;;12.73;4.70;;;6.60;99.90;;;;;;5113481;28;20208;-79
2023/04/25 04:59:18;;;;;;;17.30;4.70;;;6.70;99.90;;;;;;5097444;28;20237;-78
2023/04/25 05:01:46;;;;;;;15.17;3.90;;;6.80;99.90;;;;;;5114430;28;20235;-79
2023/04/25 05:04:13;;;;;;;15.73;4.03;;;6.80;99.90;;;;;;5122171;28;20205;-80
2023/04/25 05:06:41;;;;;;;17.43;5.13;;;6.80;99.90;;;;;;5123166;28;20296;-80
2023/04/25 05:09:08;;;;;;;16.00;4.20;;;7.00;99.90;;;;;;5122531;28;20227;-79
2023/04/25 05:11:35;;;;;;;19.27;4.70;;;7.00;99.90;;;;;;5123356;28;20199;-80
2023/04/25 05:14:04;;;;;;;14.80;4.53;;;6.90;99.90;;;;;;5104745;28;20220;-77
2023/04/25 05:16:31;;;;;;;13.57;4.13;;;7.00;99.90;;;;;;5102573;28;20210;-80
2023/04/25 05:18:58;;;;;;;20.60;4.23;;;6.90;99.90;;;;;;5110381;28;20224;-80
2023/04/25 05:21:25;;;;;;;12.70;3.63;;;6.90;99.90;;;;;;5120414;28;20220;-80
2023/04/25 05:23:53;;;;;;;14.40;4.07;;;6.90;99.90;;;;;;5123260;28;20670;-78
2023/04/25 05:26:20;;;;;;;11.93;3.70;;;6.90;99.90;;;;;;5122614;28;20581;-79
2023/04/25 05:28:47;;;;;;;15.23;3.90;;;6.90;99.90;;;;;;5122475;28;20221;-79
2023/04/25 05:31:14;;;;;;;17.27;5.17;;;6.90;99.90;;;;;;5122507;27;20726;-79
2023/04/25 05:33:41;;;;;;;17.13;4.47;;;7.10;99.90;;;;;;5121898;28;20543;-79
2023/04/25 05:36:08;;;;;;;14.90;3.47;;;7.40;99.90;;;;;;5122917;28;20583;-80
2023/04/25 05:38:35;;;;;;;15.20;4.30;;;7.40;99.90;;;;;;5121621;28;20225;-80
2023/04/25 05:41:03;;;;;;;14.60;4.57;;;7.50;99.90;;;;;;5122517;28;20243;-77
2023/04/25 05:43:30;;;;;;;10.97;3.67;;;7.50;99.90;;;;;;5102970;28;20305;-77
2023/04/25 05:45:57;;;;;;;12.87;3.77;;;7.50;99.90;;;;;;5102173;28;20221;-80
2023/04/25 05:48:24;;;;;;;14.77;3.37;;;7.50;99.90;;;;;;5114359;28;20233;-80
2023/04/25 05:50:51;;;;;;;12.13;3.60;;;7.60;99.90;;;;;;5121906;28;20725;-78
2023/04/25 05:53:18;;;;;;;12.23;3.73;;;7.60;99.90;;;;;;5110358;28;20205;-80
2023/04/25 05:55:45;;;;;;;11.87;3.43;;;7.70;99.90;;;;;;5102046;28;20205;-79
2023/04/25 05:58:13;;;;;;;11.03;3.20;;;8.00;99.90;;;;;;5101393;28;20304;-78
2023/04/25 06:00:41;;;;;;;16.10;3.90;;;8.10;99.90;;;;;;5101190;28;20565;-78
2023/04/25 06:03:09;;;;;;;13.77;3.63;;;8.10;99.90;;;;;;5100879;28;20202;-79
2023/04/25 06:05:36;;;;;;;15.17;4.17;;;8.00;99.90;;;;;;5101913;28;20689;-80
2023/04/25 06:08:03;;;;;;;15.70;3.23;;;8.20;99.90;;;;;;5108334;28;20201;-80
2023/04/25 06:10:29;;;;;;;18.40;3.13;;;7.90;99.90;;;;;;5101157;28;20193;-78
2023/04/25 06:12:56;;;;;;;11.07;3.20;;;7.80;99.90;;;;;;5107386;28;20199;-80
2023/04/25 06:15:24;;;;;;;9.77;3.03;;;7.60;99.90;;;;;;5122293;28;20701;-79
2023/04/25 06:17:51;;;;;;;13.87;3.13;;;7.80;99.90;;;;;;5121333;28;20219;-79
2023/04/25 06:20:22;;;;;;;14.03;3.03;;;7.60;99.90;;;;;;5121713;28;20224;-78
2023/04/25 06:22:49;;;;;;;14.43;3.00;;;7.70;99.90;;;;;;5121380;28;20230;-79
2023/04/25 06:25:16;;;;;;;13.30;3.00;;;7.80;99.90;;;;;;5119862;28;20575;-78
2023/04/25 06:27:43;;;;;;;13.90;3.50;;;7.70;99.90;;;;;;5107761;28;20201;-78
2023/04/25 06:30:11;;;;;;;12.43;3.20;;;7.60;99.90;;;;;;5100494;28;20259;-80
2023/04/25 06:32:40;;;;;;;12.13;2.70;;;7.70;99.90;;;;;;5112627;28;20225;-77
2023/04/25 06:35:07;;;;;;;12.53;3.20;;;7.60;99.90;;;;;;5120961;28;20204;-80
2023/04/25 06:37:34;;;;;;;15.87;3.60;;;7.60;99.90;;;;;;5120546;28;20201;-79
2023/04/25 06:40:02;;;;;;;16.33;3.73;;;7.80;99.90;;;;;;5120200;28;20227;-79
2023/04/25 06:42:29;;;;;;;15.23;3.20;;;8.30;99.90;;;;;;5120571;28;20217;-77
2023/04/25 06:44:55;;;;;;;12.47;3.03;;;8.60;99.90;;;;;;5121504;28;20211;-80
2023/04/25 06:47:22;;;;;;;15.10;2.93;;;10.00;99.90;;;;;;5120960;28;20201;-79
2023/04/25 06:49:50;;;;;;;15.13;3.50;;;9.50;99.90;;;;;;5120487;28;20221;-78
2023/04/25 06:52:17;;;;;;;13.93;3.87;;;10.00;99.90;;;;;;5113785;28;20201;-78
2023/04/25 06:54:44;;;;;;;12.93;3.17;;;9.90;99.90;;;;;;5101306;28;20198;-80
2023/04/25 06:57:11;;;;;;;8.93;2.43;;;9.90;99.90;;;;;;5100239;28;20300;-78
2023/04/25 06:59:38;;;;;;;14.90;3.20;;;9.10;99.90;;;;;;5100137;28;20285;-78
2023/04/25 07:02:05;;;;;;;11.60;2.47;;;9.80;99.90;;;;;;5112897;28;20214;-80
2023/04/25 07:04:32;;;;;;;8.60;2.70;;;10.20;99.90;;;;;;5112624;28;20269;-78
2023/04/25 07:07:02;;;;;;;8.63;2.60;;;9.90;99.90;;;;;;5099912;28;20268;-79
2023/04/25 07:09:29;;;;;;;9.97;2.40;;;9.40;99.90;;;;;;5099446;28;20247;-77
2023/04/25 07:11:56;;;;;;;10.80;2.77;;;9.00;99.90;;;;;;5115734;28;20200;-78
2023/04/25 07:14:23;;;;;;;12.60;3.57;;;9.20;99.90;;;;;;5119314;28;20565;-79
2023/04/25 07:16:50;;;;;;;13.83;3.10;;;9.40;99.90;;;;;;5119011;28;20207;-79
2023/04/25 07:19:16;;;;;;;8.33;2.40;;;10.00;99.90;;;;;;5116859;28;20231;-79
2023/04/25 07:21:43;;;;;;;13.63;2.90;;;9.60;99.90;;;;;;5098243;28;20592;-78
2023/04/25 07:24:11;;;;;;;11.53;2.87;;;9.80;99.90;;;;;;5096656;28;20201;-77
2023/04/25 07:26:38;;;;;;;9.70;2.60;;;9.60;99.90;;;;;;5101656;28;20209;-79
2023/04/25 07:29:05;;;;;;;13.37;3.17;;;9.80;99.90;;;;;;5118621;28;20217;-78
2023/04/25 07:31:34;;;;;;;11.17;3.27;;;9.50;99.90;;;;;;5118501;28;20205;-79
2023/04/25 07:34:01;;;;;;;8.30;2.67;;;9.10;99.90;;;;;;5118006;28;20613;-78
2023/04/25 07:36:28;;;;;;;12.03;3.23;;;8.90;99.90;;;;;;5116484;28;20197;-79
2023/04/25 07:38:54;;;;;;;10.13;2.87;;;8.90;99.90;;;;;;5111614;28;20224;-79
2023/04/25 07:41:23;;;;;;;7.57;2.30;;;8.70;99.90;;;;;;5115861;28;20200;-77
2023/04/25 07:43:49;;;;;;;8.40;2.30;;;8.80;99.90;;;;;;5110479;28;20201;-79
2023/04/25 07:46:16;;;;;;;9.20;2.70;;;8.50;99.90;;;;;;5117527;28;20207;-80
2023/04/25 07:48:43;;;;;;;10.63;2.90;;;8.60;99.90;;;;;;5117954;28;20225;-79
2023/04/25 07:51:10;;;;;;;7.97;2.67;;;8.60;99.90;;;;;;5118163;28;20197;-80
2023/04/25 07:53:37;;;;;;;6.87;2.83;;;8.80;99.90;;;;;;5105258;28;20190;-77
2023/04/25 07:56:04;;;;;;;8.87;2.80;;;8.80;99.90;;;;;;5106772;28;20196;-76
2023/04/25 07:58:32;;;;;;;10.43;2.37;;;8.50;99.90;;;;;;5107004;28;20257;-79
2023/04/25 08:00:59;;;;;;;11.83;2.70;;;8.40;99.90;;;;;;5101698;28;20674;-79
2023/04/25 08:03:26;;;;;;;5.70;2.47;;;8.40;99.90;;;;;;5097673;28;20253;-76
2023/04/25 08:05:53;;;;;;;9.47;2.30;;;8.20;99.90;;;;;;5095068;28;20228;-80
2023/04/25 08:08:19;;;;;;;8.07;2.00;;;8.30;99.90;;;;;;5113795;28;20211;-80
2023/04/25 08:10:47;;;;;;;6.57;2.47;;;8.50;99.90;;;;;;5116940;28;20199;-78
2023/04/25 08:13:14;;;;;;;10.53;2.90;;;8.40;99.90;;;;;;5117162;28;20376;-78
2023/04/25 08:15:42;;;;;;;10.47;2.67;;;8.50;99.90;;;;;;5116587;28;20197;-79
2023/04/25 08:18:09;;;;;;;6.97;2.30;;;8.80;99.90;;;;;;5115537;28;20673;-79
2023/04/25 08:20:36;;;;;;;11.10;2.70;;;8.90;99.90;;;;;;5117353;28;20713;-80
2023/04/25 08:23:03;;;;;;;10.37;2.50;;;9.00;99.90;;;;;;5117509;28;20263;-78
2023/04/25 08:25:30;;;;;;;6.80;2.40;;;8.90;99.90;;;;;;5115969;28;20205;-80
2023/04/25 08:27:57;;;;;;;8.57;2.43;;;9.00;99.90;;;;;;5118675;28;20634;-80
2023/04/25 08:30:23;;;;;;;7.37;2.57;;;9.10;99.90;;;;;;5116602;28;20220;-78
2023/04/25 08:32:52;;;;;;;9.37;2.53;;;9.10;99.90;;;;;;5109968;28;20202;-79
2023/04/25 08:35:19;;;;;;;6.63;2.40;;;9.00;99.90;;;;;;5096887;28;20292;-79
2023/04/25 08:37:45;;;;;;;10.40;2.53;;;8.90;99.90;;;;;;5094807;28;20563;-77
2023/04/25 08:40:15;;;;;;;11.47;2.50;;;9.10;99.90;;;;;;5096923;28;20257;-79
2023/04/25 08:42:51;;;;;;;8.30;2.00;;;9.40;99.90;;;;;;5102751;28;20592;-80
2023/04/25 08:45:18;;;;;;;6.50;1.80;;;9.50;99.90;;;;;;5107863;28;20552;-78
2023/04/25 08:47:48;;;;;;;8.90;1.80;;;9.80;99.90;;;;;;5095980;28;20206;-79
2023/04/25 08:50:19;;;;;;;12.20;2.20;;;10.40;99.90;;;;;;5094974;28;20315;-80
2023/04/25 08:52:47;;;;;;;7.77;2.30;;;10.50;99.90;;;;;;5096462;28;20239;-80
2023/04/25 08:55:16;;;;;;;9.63;1.87;;;10.80;99.90;;;;;;5096463;28;20258;-78
2023/04/25 08:57:43;;;;;;;8.57;1.80;;;10.70;99.90;;;;;;5096325;28;20236;-78
2023/04/25 09:00:11;;;;;;;6.10;2.03;;;10.10;99.90;;;;;;5096880;28;20511;-78
2023/04/25 09:02:39;;;;;;;5.70;1.90;;;10.10;99.90;;;;;;5097020;28;20300;-80
2023/04/25 09:05:09;;;;;;;7.13;1.70;;;10.80;99.90;;;;;;5096644;28;20197;-78
2023/04/25 09:07:37;;;;;;;4.20;1.90;;;11.50;99.90;;;;;;5096617;28;20259;-79
2023/04/25 09:10:05;;;;;;;2.83;1.67;;;10.80;99.90;;;;;;5096814;28;20598;-78
2023/04/25 09:12:32;;;;;;;7.30;2.10;;;10.00;99.90;;;;;;5097074;28;20212;-78
2023/04/25 09:15:07;;;;;;;9.17;1.90;;;9.70;99.90;;;;;;5097248;28;20202;-78
2023/04/25 09:17:33;;;;;;;3.83;1.57;;;9.50;99.90;;;;;;5096953;28;20238;-78
2023/04/25 09:20:08;;;;;;;7.20;1.90;;;9.40;99.90;;;;;;5095358;28;20229;-79
2023/04/25 09:22:37;;;;;;;7.03;1.80;;;9.30;99.90;;;;;;5095732;28;20220;-79
2023/04/25 09:25:08;;;;;;;7.90;2.17;;;9.20;99.90;;;;;;5095680;28;20654;-78
2023/04/25 09:27:35;;;;;;;5.73;1.77;;;8.70;9.10;;;;;;5096177;28;20627;-79
2023/04/25 09:30:03;;;;;;;8.40;2.10;;;8.70;1.00;;;;;;5095883;28;20228;-78
2023/04/25 09:32:30;;;;;;;3.90;1.63;;;9.10;92.20;;;;;;5097010;28;20194;-77
2023/04/25 09:34:57;;;;;;;7.23;1.87;;;9.30;1.00;;;;;;5097210;28;20655;-76
2023/04/25 09:37:26;;;;;;;8.50;2.33;;;9.80;99.90;;;;;;5095962;28;20209;-78
2023/04/25 09:39:56;;;;;;;3.03;1.90;;;10.50;99.90;;;;;;5096388;28;20249;-78
2023/04/25 09:42:24;;;;;;;6.53;1.97;;;11.40;99.90;;;;;;5095896;28;20679;-78
2023/04/25 09:44:53;;;;;;;4.23;1.80;;;11.30;1.00;;;;;;5095591;28;20208;-78
2023/04/25 09:47:21;;;;;;;6.33;2.17;;;11.60;1.00;;;;;;5097776;28;20566;-78
2023/04/25 09:49:48;;;;;;;4.73;1.50;;;12.00;1.00;;;;;;5098719;28;20316;-80
2023/04/25 09:52:16;;;;;;;6.03;1.73;;;11.60;99.90;;;;;;5099518;28;20198;-78
2023/04/25 09:54:43;;;;;;;3.63;1.40;;;12.20;99.90;;;;;;5098606;28;20208;-77
2023/04/25 09:57:15;;;;;;;4.83;1.93;;;12.10;86.50;;;;;;5099104;28;20246;-78
2023/04/25 09:59:45;;;;;;;4.13;1.27;;;11.40;1.00;;;;;;5099461;28;20639;-77
2023/04/25 10:02:14;;;;;;;6.83;2.03;;;10.70;99.90;;;;;;5099301;28;20210;-79
2023/04/25 10:04:42;;;;;;;4.23;1.50;;;10.80;99.90;;;;;;5099515;28;20568;-79
2023/04/25 10:07:09;;;;;;;5.37;1.60;;;10.70;1.00;;;;;;5099182;28;20204;-78
2023/04/25 10:09:40;;;;;;;7.03;2.50;;;10.60;1.00;;;;;;5098679;28;20228;-78
2023/04/25 10:12:08;;;;;;;6.50;1.80;;;10.60;1.00;;;;;;5099111;28;20251;-77
2023/04/25 10:14:36;;;;;;;6.40;1.37;;;11.10;1.00;;;;;;5099511;28;20210;-78
2023/04/25 10:17:04;;;;;;;6.17;1.83;;;10.70;1.00;;;;;;5098460;28;20246;-77
2023/04/25 10:19:31;;;;;;;6.27;1.60;;;11.20;1.00;;;;;;5098560;28;20233;-79
2023/04/25 10:22:05;;;;;;;4.67;1.37;;;12.00;1.00;;;;;;5097669;28;20208;-79
2023/04/25 10:24:32;;;;;;;3.83;1.50;;;12.60;1.00;;;;;;5101051;28;20185;-80
2023/04/25 10:26:59;;;;;;;6.60;2.20;;;11.80;99.90;;;;;;5107276;28;20205;-77
2023/04/25 10:29:29;;;;;;;3.53;1.37;;;12.00;99.90;;;;;;5110205;28;20225;-76
2023/04/25 10:31:58;;;;;;;5.67;1.77;;;12.30;1.00;;;;;;5104501;28;20208;-79
2023/04/25 10:34:39;;;;;;;3.80;1.70;;;11.90;20.80;;;;;;5106466;28;20197;-81
2023/04/25 10:37:06;;;;;;;5.83;1.63;;;11.70;1.00;;;;;;5118135;28;20196;-79
2023/04/25 10:39:34;;;;;;;3.27;1.50;;;11.30;1.00;;;;;;5117756;28;20259;-79
2023/04/25 10:42:03;;;;;;;3.37;1.60;;;10.70;1.00;;;;;;5118159;28;20302;-79
2023/04/25 10:44:31;;;;;;;5.07;1.87;;;10.80;1.00;;;;;;5119036;28;20220;-79
2023/04/25 10:47:00;;;;;;;5.27;1.63;;;10.40;99.90;;;;;;5119579;28;20205;-79
2023/04/25 10:49:32;;;;;;;7.17;2.53;;;10.40;1.00;;;;;;5114954;28;20229;-79
2023/04/25 10:52:16;;;;;;;5.83;1.70;;;10.30;1.00;;;;;;5106293;28;20227;-79
2023/04/25 10:54:46;;;;;;;7.87;2.47;;;10.20;1.00;;;;;;5118768;28;20193;-79
2023/04/25 10:57:33;;;;;;;4.10;1.60;;;10.10;1.00;;;;;;5116721;28;20636;-78
2023/04/25 11:00:09;;;;;;;4.13;2.23;;;10.00;1.00;;;;;;5117157;28;20217;-78
2023/04/25 11:02:42;;;;;;;4.73;2.20;;;10.00;1.00;;;;;;5117871;28;20205;-78
2023/04/25 11:05:10;;;;;;;8.60;2.40;;;9.90;99.90;;;;;;5108058;28;20678;-78
2023/04/25 11:07:45;;;;;;;9.67;2.10;;;9.80;1.00;;;;;;5098557;28;20205;-78
2023/04/25 11:10:12;;;;;;;9.07;2.40;;;10.00;1.00;;;;;;5108418;28;20228;-78
2023/04/25 11:12:38;;;;;;;8.60;2.47;;;10.00;1.00;;;;;;5116639;28;20205;-78
2023/04/25 11:15:07;;;;;;;7.57;2.50;;;9.90;1.00;;;;;;5108962;28;20589;-78
2023/04/25 11:17:34;;;;;;;6.73;2.27;;;10.20;1.00;;;;;;5095631;28;20201;-79
2023/04/25 11:20:07;;;;;;;5.10;2.00;;;10.40;1.00;;;;;;5095449;28;20266;-78
2023/04/25 11:22:34;;;;;;;8.83;2.50;;;10.40;99.90;;;;;;5094928;28;20268;-78
2023/04/25 11:25:06;;;;;;;8.27;2.20;;;10.40;99.90;;;;;;5094231;28;20240;-78
2023/04/25 11:27:33;;;;;;;6.83;2.50;;;10.60;99.90;;;;;;5094583;28;20201;-80
2023/04/25 11:30:00;;;;;;;5.93;2.23;;;10.00;99.90;;;;;;5094256;28;20612;-78
2023/04/25 11:32:27;;;;;;;6.80;2.40;;;9.80;99.90;;;;;;5094348;28;20220;-79
2023/04/25 11:34:54;;;;;;;9.60;2.60;;;10.00;99.90;;;;;;5094580;28;20660;-78
2023/04/25 11:37:22;;;;;;;7.13;2.20;;;10.20;99.90;;;;;;5093176;28;20725;-78
2023/04/25 11:39:49;;;;;;;7.33;2.40;;;10.70;99.90;;;;;;5094723;28;20229;-80
2023/04/25 11:42:16;;;;;;;5.70;2.17;;;11.40;99.90;;;;;;5094121;28;20297;-80
2023/04/25 11:44:43;;;;;;;5.43;1.77;;;10.90;1.00;;;;;;5095553;28;20243;-80
2023/04/25 11:47:10;;;;;;;5.80;2.07;;;10.40;1.00;;;;;;5095746;28;20206;-80
2023/04/25 11:49:37;;;;;;;7.67;1.90;;;10.20;1.00;;;;;;5095448;28;20744;-79
2023/04/25 11:52:04;;;;;;;9.80;1.83;;;10.40;1.00;;;;;;5100075;28;20293;-80
2023/04/25 11:54:32;;;;;;;5.40;1.87;;;10.20;1.00;;;;;;5094361;28;20573;-81
2023/04/25 11:56:59;;;;;;;4.60;1.90;;;10.40;1.00;;;;;;5109028;28;20218;-80
2023/04/25 11:59:27;;;;;;;3.53;1.53;;;10.50;1.00;;;;;;5097219;28;20240;-81
2023/04/25 12:01:55;;;;;;;3.17;1.47;;;10.40;1.00;;;;;;5094815;28;20201;-79
2023/04/25 12:04:24;;;;;;;5.30;2.27;;;10.40;1.00;;;;;;5104084;28;20249;-82
2023/04/25 12:06:52;;;;;;;5.70;1.80;;;9.90;1.00;;;;;;5115091;28;20280;-81
2023/04/25 12:09:21;;;;;;;4.40;1.67;;;9.70;1.00;;;;;;5112991;28;20224;-80
2023/04/25 12:11:53;;;;;;;7.03;1.87;;;9.40;99.90;;;;;;5115177;28;20205;-80
2023/04/25 12:14:26;;;;;;;7.97;2.03;;;9.20;99.90;;;;;;5096711;28;20206;-81
2023/04/25 12:16:52;;;;;;;5.77;2.07;;;9.00;1.00;;;;;;5095235;28;20790;-81
2023/04/25 12:19:21;;;;;;;5.93;1.70;;;9.00;1.00;;;;;;5112456;28;20772;-82
2023/04/25 12:21:48;;;;;;;9.17;2.73;;;8.80;1.00;;;;;;5115282;28;20215;-82
2023/04/25 12:24:16;;;;;;;7.40;1.93;;;8.70;1.00;;;;;;5115488;28;20231;-82
2023/04/25 12:26:54;;;;;;;4.70;2.23;;;9.00;99.90;;;;;;5114841;28;20211;-81
2023/04/25 12:29:23;;;;;;;7.57;1.63;;;9.30;94.40;;;;;;5114985;28;20224;-81
2023/04/25 12:31:52;;;;;;;5.33;1.70;;;9.60;1.00;;;;;;5115318;28;20209;-82
2023/04/25 12:34:18;;;;;;;5.27;1.63;;;9.90;99.90;;;;;;5115236;28;20651;-82
2023/04/25 12:36:45;;;;;;;5.83;1.63;;;9.80;99.90;;;;;;5113158;28;20265;-81
2023/04/25 12:39:16;;;;;;;2.93;1.70;;;10.00;99.90;;;;;;5113839;28;20224;-80
2023/04/25 12:41:43;;;;;;;5.27;1.60;;;10.30;66.00;;;;;;5094918;28;20201;-82
2023/04/25 12:44:12;;;;;;;5.73;1.80;;;10.80;1.00;;;;;;5095086;28;20223;-81
2023/04/25 12:46:39;;;;;;;4.37;1.70;;;11.20;1.00;;;;;;5093901;28;20207;-82
2023/04/25 12:49:07;;;;;;;2.07;1.47;;;11.30;1.00;;;;;;5093879;28;20228;-81
2023/04/25 12:51:34;;;;;;;1.50;0.97;;;11.60;99.90;;;;;;5094502;28;20202;-81
2023/04/25 12:54:01;;;;;;;4.77;1.00;;;11.40;99.90;;;;;;5094397;28;20569;-80